Time;durP1;ratioP1;P1;durP2;ratioP2;P2;SDS_P1;SDS_P2;PMS_P1;PMS_P2;Temp;Humidity;BMP_temperature;BMP_pressure;BME280_temperature;BME280_humidity;BME280_pressure;Samples;Min_cycle;Max_cycle;Signal;HPM_P1;HPM_P2
2021/08/14 00:01:14;;;;;;;18.10;10.25;;;22.50;99.90;;;;;;5015072;28;20144;-62
2021/08/14 00:03:41;;;;;;;17.75;10.80;;;22.60;99.90;;;;;;5015000;28;20385;-62
2021/08/14 00:06:06;;;;;;;15.18;9.55;;;22.40;99.90;;;;;;5015054;28;20042;-62
2021/08/14 00:08:32;;;;;;;16.13;11.27;;;22.40;99.90;;;;;;5014857;28;20041;-62
2021/08/14 00:10:58;;;;;;;15.80;10.27;;;22.50;99.90;;;;;;5014820;28;20041;-62
2021/08/14 00:13:24;;;;;;;16.30;10.18;;;22.40;99.90;;;;;;5014887;28;20441;-62
2021/08/14 00:15:49;;;;;;;15.05;10.35;;;22.40;99.90;;;;;;5014650;28;20038;-62
2021/08/14 00:18:15;;;;;;;23.42;10.63;;;22.50;99.90;;;;;;5014934;28;20034;-62
2021/08/14 00:20:41;;;;;;;17.38;10.80;;;22.40;99.90;;;;;;5014587;28;20042;-62
2021/08/14 00:23:07;;;;;;;20.40;10.45;;;22.20;99.90;;;;;;5014754;28;20061;-62
2021/08/14 00:25:33;;;;;;;19.20;9.90;;;22.30;99.90;;;;;;5014343;28;20037;-62
2021/08/14 00:27:58;;;;;;;15.88;11.13;;;22.10;99.90;;;;;;5014584;28;20038;-62
2021/08/14 00:30:24;;;;;;;15.60;9.85;;;21.90;99.90;;;;;;5014168;28;20042;-62
2021/08/14 00:32:51;;;;;;;15.27;10.85;;;21.80;99.90;;;;;;5014184;28;20022;-62
2021/08/14 00:35:18;;;;;;;14.75;10.65;;;21.80;99.90;;;;;;5014612;28;20176;-62
2021/08/14 00:37:44;;;;;;;19.70;10.80;;;21.60;99.90;;;;;;5014057;28;20103;-61
2021/08/14 00:40:11;;;;;;;17.23;10.13;;;21.20;99.90;;;;;;5014510;28;20038;-62
2021/08/14 00:42:37;;;;;;;15.00;9.77;;;21.30;99.90;;;;;;5013023;28;20042;-62
2021/08/14 00:45:04;;;;;;;17.65;9.88;;;21.60;99.90;;;;;;5014330;28;20482;-62
2021/08/14 00:47:30;;;;;;;17.13;10.45;;;21.60;99.90;;;;;;5013846;28;20041;-62
2021/08/14 00:49:56;;;;;;;14.18;9.23;;;21.60;99.90;;;;;;5014316;28;20031;-62
2021/08/14 00:52:23;;;;;;;13.55;8.88;;;21.60;99.90;;;;;;5013885;28;20119;-62
2021/08/14 00:54:48;;;;;;;13.95;9.30;;;21.80;99.90;;;;;;5014083;28;20104;-62
2021/08/14 00:57:15;;;;;;;15.57;10.20;;;22.00;99.90;;;;;;5014062;28;20073;-62
2021/08/14 00:59:45;;;;;;;14.60;10.02;;;21.90;99.90;;;;;;5013938;28;20037;-62
2021/08/14 01:02:12;;;;;;;15.50;10.15;;;21.70;99.90;;;;;;5012727;28;20121;-62
2021/08/14 01:04:38;;;;;;;14.48;9.77;;;21.60;99.90;;;;;;5013767;28;20044;-62
2021/08/14 01:07:04;;;;;;;16.80;10.85;;;21.40;99.90;;;;;;5013833;28;20029;-63
2021/08/14 01:09:30;;;;;;;17.85;10.43;;;21.30;99.90;;;;;;5013802;28;20041;-63
2021/08/14 01:12:03;;;;;;;15.75;9.98;;;21.30;99.90;;;;;;5013657;28;20037;-63
2021/08/14 01:14:31;;;;;;;17.75;11.70;;;21.40;99.90;;;;;;5012054;28;20046;-62
2021/08/14 01:16:57;;;;;;;16.67;10.65;;;21.40;99.90;;;;;;5013559;28;20037;-62
2021/08/14 01:19:24;;;;;;;19.05;10.43;;;21.10;99.90;;;;;;5013253;28;20433;-62
2021/08/14 01:21:51;;;;;;;13.88;9.43;;;20.90;99.90;;;;;;5012316;28;20044;-62
2021/08/14 01:24:18;;;;;;;16.25;10.73;;;20.80;99.90;;;;;;4995807;28;20057;-62
2021/08/14 01:26:45;;;;;;;14.00;8.90;;;20.80;99.90;;;;;;5013292;28;20099;-62
2021/08/14 01:29:11;;;;;;;17.42;9.00;;;20.80;99.90;;;;;;5013519;28;20481;-62
2021/08/14 01:31:38;;;;;;;15.10;9.90;;;20.80;99.90;;;;;;5013359;28;20048;-62
2021/08/14 01:34:04;;;;;;;15.60;9.57;;;20.70;99.90;;;;;;5013422;28;20045;-63
2021/08/14 01:36:30;;;;;;;18.25;10.32;;;20.70;99.90;;;;;;5013316;28;20033;-62
2021/08/14 01:39:00;;;;;;;17.20;9.98;;;20.50;99.90;;;;;;5013348;28;20030;-62
2021/08/14 01:41:28;;;;;;;15.63;10.68;;;20.40;99.90;;;;;;5013129;28;20030;-62
2021/08/14 01:44:00;;;;;;;18.52;10.95;;;20.20;99.90;;;;;;5013238;28;20049;-62
2021/08/14 01:46:30;;;;;;;14.98;9.80;;;20.20;99.90;;;;;;5013103;28;20025;-62
2021/08/14 01:48:56;;;;;;;15.20;10.32;;;20.10;99.90;;;;;;5012400;28;20103;-62
2021/08/14 01:51:22;;;;;;;15.32;10.27;;;20.10;99.90;;;;;;5013137;28;20049;-62
2021/08/14 01:53:50;;;;;;;17.08;11.77;;;20.30;99.90;;;;;;5012919;28;20482;-62
2021/08/14 01:56:17;;;;;;;16.75;10.60;;;20.20;99.90;;;;;;5012874;28;20033;-62
2021/08/14 01:58:43;;;;;;;17.35;11.25;;;20.10;99.90;;;;;;5012434;28;20494;-62
2021/08/14 02:01:10;;;;;;;16.52;10.13;;;20.00;99.90;;;;;;5012916;28;20033;-62
2021/08/14 02:03:37;;;;;;;16.83;11.48;;;20.00;99.90;;;;;;5012827;28;20034;-62
2021/08/14 02:06:03;;;;;;;15.30;10.65;;;19.90;99.90;;;;;;5012937;28;20084;-62
2021/08/14 02:08:30;;;;;;;18.00;10.82;;;19.90;99.90;;;;;;5012500;28;20034;-62
2021/08/14 02:10:55;;;;;;;18.00;11.93;;;20.00;99.90;;;;;;5012747;28;20030;-63
2021/08/14 02:13:22;;;;;;;15.77;11.10;;;19.90;99.90;;;;;;5012793;28;20036;-62
2021/08/14 02:15:47;;;;;;;17.10;11.15;;;19.80;99.90;;;;;;5012373;28;20508;-62
2021/08/14 02:18:13;;;;;;;22.70;11.32;;;19.70;99.90;;;;;;5012696;28;20030;-60
2021/08/14 02:20:39;;;;;;;15.98;10.48;;;19.80;99.90;;;;;;5012491;28;20049;-62
2021/08/14 02:23:05;;;;;;;17.27;10.68;;;19.70;99.90;;;;;;5012665;28;20121;-62
2021/08/14 02:25:30;;;;;;;19.90;12.05;;;19.80;99.90;;;;;;5012475;28;20061;-62
2021/08/14 02:27:56;;;;;;;15.48;10.82;;;19.70;99.90;;;;;;5012533;28;20041;-62
2021/08/14 02:30:22;;;;;;;17.63;11.60;;;19.50;99.90;;;;;;5012623;28;20059;-62
2021/08/14 02:32:47;;;;;;;19.05;12.57;;;19.50;99.90;;;;;;5012359;28;20160;-62
2021/08/14 02:35:14;;;;;;;18.13;13.00;;;19.40;99.90;;;;;;5012491;28;20041;-62
2021/08/14 02:37:40;;;;;;;21.77;12.43;;;19.50;99.90;;;;;;5012320;28;20034;-62
2021/08/14 02:40:08;;;;;;;21.92;13.23;;;19.50;99.90;;;;;;5012329;28;20032;-62
2021/08/14 02:42:40;;;;;;;19.25;12.90;;;19.40;99.90;;;;;;5012229;28;20041;-62
2021/08/14 02:45:07;;;;;;;19.10;11.90;;;19.40;99.90;;;;;;5012478;28;20119;-62
2021/08/14 02:47:33;;;;;;;19.05;12.77;;;19.40;99.90;;;;;;5012300;28;20037;-63
2021/08/14 02:49:59;;;;;;;21.08;13.82;;;19.30;99.90;;;;;;5012413;28;20030;-62
2021/08/14 02:52:24;;;;;;;21.83;12.70;;;19.40;99.90;;;;;;5012402;28;20029;-62
2021/08/14 02:54:50;;;;;;;17.38;12.23;;;19.40;99.90;;;;;;5011974;28;20034;-62
2021/08/14 02:57:16;;;;;;;21.00;13.23;;;19.30;99.90;;;;;;5012401;28;20184;-63
2021/08/14 02:59:42;;;;;;;19.17;12.57;;;19.20;99.90;;;;;;5012954;28;20030;-62
2021/08/14 03:02:07;;;;;;;21.27;12.48;;;19.10;99.90;;;;;;5016195;28;20154;-62
2021/08/14 03:04:33;;;;;;;20.58;13.15;;;19.10;99.90;;;;;;5015830;28;20029;-62
2021/08/14 03:06:59;;;;;;;20.10;13.38;;;19.10;99.90;;;;;;5016229;28;20029;-62
2021/08/14 03:09:25;;;;;;;16.98;12.20;;;19.20;99.90;;;;;;5015885;28;20034;-62
2021/08/14 03:11:50;;;;;;;21.35;13.55;;;19.20;99.90;;;;;;5016409;28;20026;-62
2021/08/14 03:14:16;;;;;;;21.65;13.18;;;19.30;99.90;;;;;;5016152;28;20026;-62
2021/08/14 03:16:42;;;;;;;17.30;12.57;;;19.30;99.90;;;;;;5016108;28;20114;-62
2021/08/14 03:19:07;;;;;;;20.05;13.65;;;19.30;99.90;;;;;;5015997;28;20117;-62
2021/08/14 03:21:33;;;;;;;20.55;11.65;;;19.20;99.90;;;;;;5015447;28;20030;-62
2021/08/14 03:23:59;;;;;;;16.90;11.82;;;19.40;99.90;;;;;;5015553;28;20037;-62
2021/08/14 03:26:25;;;;;;;19.08;12.32;;;19.40;99.90;;;;;;5016018;28;20121;-62
2021/08/14 03:28:52;;;;;;;20.48;11.65;;;19.40;99.90;;;;;;5015653;28;20109;-62
2021/08/14 03:31:21;;;;;;;16.50;11.73;;;19.60;99.90;;;;;;5015848;28;20042;-62
2021/08/14 03:33:47;;;;;;;21.20;13.23;;;19.70;99.90;;;;;;5015661;28;20041;-62
2021/08/14 03:36:14;;;;;;;19.80;12.70;;;19.50;99.90;;;;;;5015757;28;20030;-62
2021/08/14 03:38:39;;;;;;;18.63;13.20;;;19.40;99.90;;;;;;5015518;28;20026;-62
2021/08/14 03:41:07;;;;;;;17.92;11.88;;;19.50;99.90;;;;;;5015694;28;20393;-62
2021/08/14 03:43:33;;;;;;;19.05;11.80;;;19.70;99.90;;;;;;5015428;28;20046;-62
2021/08/14 03:45:59;;;;;;;17.08;11.75;;;19.70;99.90;;;;;;5015558;28;20385;-62
2021/08/14 03:48:24;;;;;;;18.40;11.75;;;19.70;99.90;;;;;;5015590;28;20028;-62
2021/08/14 03:50:50;;;;;;;17.75;11.77;;;19.70;99.90;;;;;;5015232;28;20026;-62
2021/08/14 03:53:16;;;;;;;16.52;11.68;;;19.60;99.90;;;;;;5015139;28;20113;-62
2021/08/14 03:55:43;;;;;;;16.30;10.98;;;19.50;99.90;;;;;;5015197;28;20032;-62
2021/08/14 03:58:09;;;;;;;20.88;11.27;;;19.40;99.90;;;;;;5015222;28;20033;-62
2021/08/14 04:00:35;;;;;;;14.27;10.38;;;19.40;99.90;;;;;;5015022;28;20029;-62
2021/08/14 04:03:01;;;;;;;16.52;10.30;;;19.30;99.90;;;;;;5015300;28;20030;-62
2021/08/14 04:05:27;;;;;;;16.67;11.63;;;19.00;99.90;;;;;;5014892;28;20041;-62
2021/08/14 04:07:52;;;;;;;18.05;13.02;;;19.10;99.90;;;;;;5015045;28;20029;-62
2021/08/14 04:10:19;;;;;;;19.30;11.88;;;19.00;99.90;;;;;;5015105;28;20037;-62
2021/08/14 04:12:45;;;;;;;19.65;13.25;;;18.80;99.90;;;;;;5014109;28;20034;-62
2021/08/14 04:15:12;;;;;;;17.45;10.93;;;18.70;99.90;;;;;;5014673;28;20045;-62
2021/08/14 04:17:38;;;;;;;18.77;12.45;;;18.70;99.90;;;;;;5014782;28;20469;-62
2021/08/14 04:20:05;;;;;;;21.52;12.13;;;18.70;99.90;;;;;;5014876;28;20069;-62
2021/08/14 04:22:31;;;;;;;17.77;10.82;;;18.90;99.90;;;;;;5014835;28;20068;-62
2021/08/14 04:24:57;;;;;;;16.52;12.45;;;18.70;99.90;;;;;;5014632;28;20457;-62
2021/08/14 04:27:23;;;;;;;19.33;11.93;;;18.60;99.90;;;;;;5014734;28;20029;-62
2021/08/14 04:29:49;;;;;;;20.50;12.93;;;18.60;99.90;;;;;;5014551;28;20351;-62
2021/08/14 04:32:15;;;;;;;21.83;12.90;;;18.60;99.90;;;;;;5014613;28;20045;-62
2021/08/14 04:34:41;;;;;;;20.27;12.13;;;18.60;99.90;;;;;;5014440;28;20030;-62
2021/08/14 04:37:07;;;;;;;20.92;11.82;;;18.80;99.90;;;;;;5014654;28;20045;-62
2021/08/14 04:39:33;;;;;;;17.48;10.05;;;18.90;99.90;;;;;;5014226;28;20042;-62
2021/08/14 04:41:59;;;;;;;18.50;8.60;;;19.10;99.90;;;;;;5014464;28;20037;-62
2021/08/14 04:44:24;;;;;;;17.17;9.40;;;19.20;99.90;;;;;;5014447;28;20029;-62
2021/08/14 04:46:50;;;;;;;13.13;8.25;;;19.20;99.90;;;;;;5014291;28;20144;-62
2021/08/14 04:49:16;;;;;;;13.95;8.00;;;19.30;99.90;;;;;;5013131;28;20030;-62
2021/08/14 04:51:42;;;;;;;12.52;8.40;;;19.10;99.90;;;;;;5013903;28;20120;-62
2021/08/14 04:54:07;;;;;;;15.88;9.32;;;18.90;99.90;;;;;;5014256;28;20390;-62
2021/08/14 04:56:33;;;;;;;15.05;10.18;;;18.60;99.90;;;;;;5014040;28;20579;-62
2021/08/14 04:59:00;;;;;;;13.77;9.75;;;18.50;99.90;;;;;;5014006;28;20026;-62
2021/08/14 05:01:26;;;;;;;14.65;10.55;;;18.50;99.90;;;;;;5014039;28;20040;-62
2021/08/14 05:03:52;;;;;;;17.27;11.70;;;18.60;99.90;;;;;;5012819;28;20515;-62
2021/08/14 05:06:17;;;;;;;17.42;10.68;;;18.50;99.90;;;;;;5014069;28;20113;-62
2021/08/14 05:08:43;;;;;;;19.67;11.68;;;18.60;99.90;;;;;;5012498;28;20038;-62
2021/08/14 05:11:09;;;;;;;17.98;10.70;;;18.80;99.90;;;;;;5014042;28;20418;-62
2021/08/14 05:13:35;;;;;;;15.80;11.55;;;18.90;99.90;;;;;;5013960;28;20088;-62
2021/08/14 05:16:01;;;;;;;19.73;11.93;;;19.00;99.90;;;;;;5013380;28;20050;-62
2021/08/14 05:18:27;;;;;;;17.63;11.48;;;19.10;99.90;;;;;;5013768;28;20037;-62
2021/08/14 05:20:52;;;;;;;17.23;10.88;;;19.20;99.90;;;;;;5013242;28;20108;-62
2021/08/14 05:23:18;;;;;;;45.40;12.48;;;19.20;99.90;;;;;;5012719;28;20078;-62
2021/08/14 05:25:44;;;;;;;20.60;11.45;;;19.00;99.90;;;;;;5013383;28;20113;-61
2021/08/14 05:28:10;;;;;;;18.05;11.43;;;19.20;99.90;;;;;;5013269;28;20030;-62
2021/08/14 05:30:35;;;;;;;16.50;12.20;;;19.20;99.90;;;;;;5012359;28;20109;-62
2021/08/14 05:33:01;;;;;;;16.65;11.32;;;19.20;99.90;;;;;;5013505;28;20077;-62
2021/08/14 05:35:27;;;;;;;22.75;12.82;;;19.20;99.90;;;;;;5013508;28;20068;-61
2021/08/14 05:37:53;;;;;;;25.70;12.63;;;19.10;99.90;;;;;;5013427;28;20038;-63
2021/08/14 05:40:18;;;;;;;18.75;12.48;;;19.10;99.90;;;;;;5013337;28;20115;-66
2021/08/14 05:42:44;;;;;;;19.55;11.45;;;19.10;99.90;;;;;;5013338;28;20034;-64
2021/08/14 05:45:11;;;;;;;19.42;12.32;;;19.20;99.90;;;;;;5013445;28;20049;-67
2021/08/14 05:47:37;;;;;;;17.55;12.07;;;19.10;99.90;;;;;;5013205;28;20501;-64
2021/08/14 05:50:04;;;;;;;18.17;12.10;;;19.00;99.90;;;;;;5013156;28;20042;-66
2021/08/14 05:52:30;;;;;;;18.90;12.30;;;19.00;99.90;;;;;;5013049;28;20044;-68
2021/08/14 05:54:57;;;;;;;16.92;12.13;;;19.10;99.90;;;;;;5013092;28;20223;-66
2021/08/14 05:57:23;;;;;;;18.98;12.77;;;19.10;99.90;;;;;;5013015;28;20417;-65
2021/08/14 05:59:49;;;;;;;18.05;11.65;;;19.10;99.90;;;;;;5012936;28;20034;-63
2021/08/14 06:02:15;;;;;;;17.15;12.57;;;19.10;99.90;;;;;;5012884;28;20104;-65
2021/08/14 06:04:40;;;;;;;19.23;12.32;;;19.30;99.90;;;;;;5012842;28;20499;-65
2021/08/14 06:07:06;;;;;;;18.25;12.27;;;19.40;99.90;;;;;;5012933;28;20049;-63
2021/08/14 06:09:32;;;;;;;17.95;11.40;;;19.50;99.90;;;;;;5012982;28;20030;-64
2021/08/14 06:11:59;;;;;;;18.45;11.60;;;19.70;99.90;;;;;;5012789;28;20056;-63
2021/08/14 06:14:25;;;;;;;18.23;11.68;;;19.90;99.90;;;;;;5012419;28;20463;-62
2021/08/14 06:16:50;;;;;;;16.98;11.90;;;20.00;99.90;;;;;;5012659;28;20077;-62
2021/08/14 06:19:16;;;;;;;18.15;11.35;;;20.10;99.90;;;;;;5012823;28;20026;-62
2021/08/14 06:21:42;;;;;;;18.60;11.43;;;20.40;99.90;;;;;;5011339;28;20421;-67
2021/08/14 06:24:09;;;;;;;20.15;11.77;;;20.40;99.90;;;;;;5012780;28;20076;-63
2021/08/14 06:26:34;;;;;;;17.85;11.35;;;20.50;99.90;;;;;;5012675;28;20030;-64
2021/08/14 06:29:00;;;;;;;18.48;11.73;;;20.60;99.90;;;;;;5012569;28;20034;-64
2021/08/14 06:31:26;;;;;;;18.85;10.77;;;20.60;99.90;;;;;;5015212;28;20100;-63
2021/08/14 06:33:51;;;;;;;17.10;11.27;;;20.80;99.90;;;;;;5022204;28;20030;-62
2021/08/14 06:36:17;;;;;;;21.35;11.25;;;20.80;99.90;;;;;;5011932;28;20034;-65
2021/08/14 06:38:43;;;;;;;18.02;10.80;;;20.70;99.90;;;;;;5032016;28;20036;-64
2021/08/14 06:41:09;;;;;;;15.77;11.35;;;20.80;99.90;;;;;;5032083;28;20042;-63
2021/08/14 06:43:35;;;;;;;16.98;11.23;;;20.80;99.90;;;;;;5032068;28;20046;-64
2021/08/14 06:46:00;;;;;;;21.05;12.30;;;20.90;99.90;;;;;;5031655;28;20033;-63
2021/08/14 06:48:26;;;;;;;18.70;11.20;;;20.80;99.90;;;;;;5032116;28;20029;-64
2021/08/14 06:50:52;;;;;;;21.13;13.07;;;20.80;99.90;;;;;;5032133;28;20061;-64
2021/08/14 06:53:18;;;;;;;18.80;11.63;;;21.00;99.90;;;;;;5032157;28;20036;-64
2021/08/14 06:55:44;;;;;;;16.58;11.50;;;21.10;99.90;;;;;;5031875;28;20179;-65
2021/08/14 06:58:10;;;;;;;19.63;13.27;;;21.30;99.90;;;;;;5031751;28;20513;-64
2021/08/14 07:00:35;;;;;;;16.20;11.93;;;21.50;99.90;;;;;;5032080;28;20049;-63
2021/08/14 07:03:01;;;;;;;20.95;13.30;;;21.50;99.90;;;;;;5031579;28;20037;-65
2021/08/14 07:05:27;;;;;;;21.63;12.90;;;21.60;99.90;;;;;;5031861;28;20021;-64
2021/08/14 07:07:53;;;;;;;20.98;12.73;;;21.50;99.90;;;;;;5031654;28;20117;-63
2021/08/14 07:10:19;;;;;;;20.98;11.88;;;21.50;99.90;;;;;;5032062;28;20033;-64
2021/08/14 07:12:44;;;;;;;18.45;11.27;;;21.70;99.90;;;;;;5031826;28;20060;-63
2021/08/14 07:15:12;;;;;;;20.92;11.95;;;21.70;99.90;;;;;;5031705;28;20083;-62
2021/08/14 07:17:38;;;;;;;20.42;11.68;;;21.90;99.90;;;;;;5031832;28;20091;-61
2021/08/14 07:20:05;;;;;;;20.20;12.00;;;21.70;99.90;;;;;;5031835;28;20026;-62
2021/08/14 07:22:31;;;;;;;20.08;11.68;;;21.80;99.90;;;;;;5031805;28;20033;-64
2021/08/14 07:24:57;;;;;;;19.27;13.25;;;22.00;99.90;;;;;;5031924;28;20443;-63
2021/08/14 07:27:25;;;;;;;16.75;11.45;;;22.10;99.90;;;;;;5031416;28;20030;-63
2021/08/14 07:29:51;;;;;;;17.23;11.63;;;22.10;99.90;;;;;;5031577;28;20033;-62
2021/08/14 07:32:16;;;;;;;19.55;12.32;;;22.20;99.90;;;;;;5031400;28;20037;-63
2021/08/14 07:34:42;;;;;;;18.65;12.00;;;22.20;99.90;;;;;;5031905;28;20030;-62
2021/08/14 07:37:08;;;;;;;19.67;11.55;;;22.20;99.90;;;;;;5031569;28;20509;-64
2021/08/14 07:39:34;;;;;;;18.83;11.82;;;22.40;99.90;;;;;;5031797;28;20032;-63
2021/08/14 07:41:59;;;;;;;19.20;12.23;;;22.50;99.90;;;;;;5031399;28;20059;-63
2021/08/14 07:44:25;;;;;;;21.67;12.45;;;22.50;99.90;;;;;;5031659;28;20112;-65
2021/08/14 07:46:51;;;;;;;21.33;12.57;;;22.40;99.90;;;;;;5032028;28;20029;-63
2021/08/14 07:49:17;;;;;;;18.63;11.38;;;22.60;99.90;;;;;;5035119;28;20381;-64
2021/08/14 07:51:42;;;;;;;18.00;11.30;;;22.70;99.90;;;;;;5035068;28;20072;-65
2021/08/14 07:54:08;;;;;;;17.67;11.85;;;22.80;99.90;;;;;;5034806;28;20037;-65
2021/08/14 07:56:34;;;;;;;18.20;11.10;;;23.00;99.90;;;;;;5035034;28;20030;-67
2021/08/14 07:59:00;;;;;;;19.00;11.88;;;23.00;99.90;;;;;;5034543;28;20443;-65
2021/08/14 08:01:26;;;;;;;26.90;12.45;;;22.80;99.90;;;;;;5037873;28;20033;-64
2021/08/14 08:03:51;;;;;;;18.05;11.43;;;22.90;99.90;;;;;;5054704;28;20036;-65
2021/08/14 08:06:17;;;;;;;17.10;11.45;;;23.10;99.90;;;;;;5054628;28;20036;-64
2021/08/14 08:08:43;;;;;;;17.65;10.35;;;23.20;99.90;;;;;;5054763;28;20112;-64
2021/08/14 08:11:09;;;;;;;16.55;10.38;;;23.30;99.90;;;;;;5054353;28;20409;-64
2021/08/14 08:13:34;;;;;;;19.00;10.18;;;23.40;99.90;;;;;;5054678;28;20029;-66
2021/08/14 08:16:00;;;;;;;15.88;10.20;;;23.30;99.90;;;;;;5054291;28;20056;-66
2021/08/14 08:18:26;;;;;;;15.50;10.30;;;23.50;99.90;;;;;;5054120;28;20060;-66
2021/08/14 08:20:52;;;;;;;16.85;9.73;;;23.60;99.90;;;;;;5052700;28;20052;-66
2021/08/14 08:23:18;;;;;;;17.13;9.23;;;23.60;99.90;;;;;;5054481;28;20396;-66
2021/08/14 08:25:44;;;;;;;12.82;8.02;;;23.70;99.90;;;;;;5054398;28;20488;-65
2021/08/14 08:28:10;;;;;;;11.95;7.60;;;23.70;99.90;;;;;;5026746;28;20034;-66
2021/08/14 08:30:36;;;;;;;12.50;8.60;;;23.80;99.90;;;;;;5027510;28;20029;-66
2021/08/14 08:33:02;;;;;;;14.20;7.97;;;23.90;99.90;;;;;;5052880;28;20126;-65
2021/08/14 08:35:27;;;;;;;12.15;7.72;;;24.00;99.90;;;;;;5053935;28;20126;-66
2021/08/14 08:37:53;;;;;;;14.02;7.05;;;24.20;99.90;;;;;;5053865;28;20041;-66
2021/08/14 08:40:19;;;;;;;11.57;7.35;;;24.40;99.90;;;;;;5052851;28;20025;-65
2021/08/14 08:42:47;;;;;;;11.05;6.57;;;24.50;99.90;;;;;;5052523;28;20039;-65
2021/08/14 08:45:13;;;;;;;11.90;6.15;;;24.40;99.90;;;;;;5053799;28;20029;-65
2021/08/14 08:47:45;;;;;;;9.23;6.28;;;24.50;99.90;;;;;;5053890;28;20374;-66
2021/08/14 08:50:13;;;;;;;10.90;5.80;;;24.40;99.90;;;;;;5052571;28;20282;-65
2021/08/14 08:52:44;;;;;;;10.02;5.85;;;24.60;99.90;;;;;;5053885;28;20059;-66
2021/08/14 08:55:12;;;;;;;9.38;5.80;;;24.60;99.90;;;;;;5052504;28;20396;-65
2021/08/14 08:57:38;;;;;;;14.05;6.30;;;24.80;99.90;;;;;;5053662;28;20555;-66
2021/08/14 09:00:05;;;;;;;10.73;6.13;;;24.70;99.90;;;;;;5053661;28;20120;-65
2021/08/14 09:02:34;;;;;;;8.80;5.32;;;24.80;99.90;;;;;;5052462;28;20105;-66
2021/08/14 09:05:19;;;;;;;7.47;4.78;;;25.00;99.90;;;;;;5053631;28;20025;-66
2021/08/14 09:07:49;;;;;;;8.88;5.28;;;25.30;99.90;;;;;;5053449;28;20116;-65
2021/08/14 09:10:24;;;;;;;8.38;4.38;;;25.40;99.90;;;;;;5053235;28;20397;-66
2021/08/14 09:12:50;;;;;;;8.60;4.85;;;25.40;99.90;;;;;;5053209;28;20041;-65
2021/08/14 09:15:36;;;;;;;6.93;4.40;;;25.50;99.90;;;;;;5051057;28;20570;-65
2021/08/14 09:18:08;;;;;;;6.88;4.35;;;25.50;99.90;;;;;;5051843;28;20455;-66
2021/08/14 09:20:51;;;;;;;15.50;5.40;;;25.70;99.90;;;;;;5051862;28;20044;-66
2021/08/14 09:23:17;;;;;;;8.65;5.00;;;26.00;99.90;;;;;;5053217;28;20025;-65
2021/08/14 09:26:06;;;;;;;7.40;4.88;;;25.90;99.90;;;;;;5051706;28;20029;-65
2021/08/14 09:28:34;;;;;;;9.07;5.93;;;26.10;99.90;;;;;;5049403;28;20051;-65
2021/08/14 09:31:03;;;;;;;9.63;5.80;;;26.30;99.90;;;;;;5052837;28;20504;-65
2021/08/14 09:33:34;;;;;;;8.20;4.93;;;26.20;99.90;;;;;;5052866;28;20060;-65
2021/08/14 09:36:07;;;;;;;;;;;26.20;99.90;;;;;;5053141;28;20105;-65
2021/08/14 09:38:52;;;;;;;9.00;5.00;;;26.40;99.90;;;;;;5051499;28;19939;-66
2021/08/14 09:41:20;;;;;;;8.40;4.90;;;26.30;99.80;;;;;;5052433;28;20025;-65
2021/08/14 09:43:48;;;;;;;9.60;5.47;;;26.40;99.90;;;;;;5051677;28;20033;-65
2021/08/14 09:46:14;;;;;;;11.05;4.80;;;26.60;99.60;;;;;;5051305;28;20504;-66
2021/08/14 09:48:41;;;;;;;6.82;4.50;;;26.40;99.90;;;;;;5051447;28;20037;-65
2021/08/14 09:51:28;;;;;;;7.45;5.20;;;26.40;99.90;;;;;;5052452;28;20033;-65
2021/08/14 09:53:55;;;;;;;7.22;4.68;;;26.70;99.70;;;;;;5052708;28;20527;-65
2021/08/14 09:56:24;;;;;;;8.30;4.82;;;26.80;99.90;;;;;;5051168;28;20037;-65
2021/08/14 09:58:51;;;;;;;9.90;4.82;;;26.80;99.90;;;;;;5052211;28;20504;-65
2021/08/14 10:01:18;;;;;;;9.20;4.90;;;27.00;99.90;;;;;;5052465;28;20163;-65
2021/08/14 10:03:45;;;;;;;11.35;5.10;;;27.30;99.60;;;;;;5050971;28;20032;-65
2021/08/14 10:06:11;;;;;;;7.07;4.38;;;27.30;98.80;;;;;;5052316;28;20116;-66
2021/08/14 10:08:40;;;;;;;9.50;5.43;;;27.40;98.70;;;;;;5034328;28;20496;-64
2021/08/14 10:11:11;;;;;;;12.70;4.88;;;27.60;98.50;;;;;;5051764;28;20033;-75
2021/08/14 10:13:47;;;;;;;7.88;4.57;;;27.80;98.40;;;;;;5051118;28;20102;-74
2021/08/14 10:16:15;;;;;;;6.53;4.40;;;27.70;98.70;;;;;;5050759;28;20072;-74
2021/08/14 10:18:43;;;;;;;10.85;4.90;;;27.80;98.90;;;;;;5052284;28;20036;-76
2021/08/14 10:21:12;;;;;;;8.45;4.38;;;27.90;98.40;;;;;;5034301;28;20033;-72
2021/08/14 10:23:40;;;;;;;5.90;4.20;;;28.10;98.10;;;;;;5052526;28;20490;-73
2021/08/14 10:26:11;;;;;;;8.35;4.65;;;28.20;97.70;;;;;;5050955;28;20506;-71
2021/08/14 10:28:48;;;;;;;7.05;3.97;;;28.50;98.30;;;;;;5051045;28;20040;-71
2021/08/14 10:31:29;;;;;;;7.50;4.45;;;28.40;97.10;;;;;;5048873;28;20065;-71
2021/08/14 10:34:15;;;;;;;8.43;4.78;;;28.60;97.10;;;;;;5011407;28;20037;-72
2021/08/14 10:36:43;;;;;;;7.00;4.30;;;28.60;95.80;;;;;;5012326;28;20037;-72
2021/08/14 10:39:31;;;;;;;9.85;4.03;;;28.50;94.90;;;;;;4994950;28;20038;-72
2021/08/14 10:42:01;;;;;;;6.68;4.07;;;28.60;95.00;;;;;;5011287;28;20033;-72
2021/08/14 10:45:13;;;;;;;6.47;4.10;;;28.70;95.50;;;;;;5012399;28;20034;-72
2021/08/14 10:47:41;;;;;;;7.20;3.72;;;28.90;93.80;;;;;;4993741;28;20804;-72
2021/08/14 10:50:10;;;;;;;8.00;4.35;;;28.90;92.70;;;;;;5012403;28;20045;-72
2021/08/14 10:52:38;;;;;;;7.22;3.38;;;29.00;93.10;;;;;;5011123;28;20030;-72
2021/08/14 10:55:11;;;;;;;8.20;3.92;;;29.10;93.60;;;;;;5012021;28;20490;-72
2021/08/14 10:57:54;;;;;;;8.23;4.15;;;29.10;93.80;;;;;;5011956;28;20080;-72
2021/08/14 11:00:25;;;;;;;8.68;3.63;;;29.40;93.30;;;;;;4994502;28;20386;-72
2021/08/14 11:03:06;;;;;;;7.57;3.78;;;29.50;91.90;;;;;;5010922;28;20030;-72
2021/08/14 11:05:33;;;;;;;7.35;4.03;;;29.70;91.10;;;;;;5011535;28;20378;-72
2021/08/14 11:08:02;;;;;;;7.78;3.53;;;29.70;91.00;;;;;;5012309;28;20046;-72
2021/08/14 11:10:46;;;;;;;5.35;3.83;;;29.80;91.00;;;;;;5010841;28;20098;-72
2021/08/14 11:13:30;;;;;;;6.18;3.80;;;29.90;90.90;;;;;;5011637;28;20104;-72
2021/08/14 11:15:57;;;;;;;7.97;3.97;;;30.00;91.30;;;;;;5010717;28;20111;-72
2021/08/14 11:18:49;;;;;;;7.13;3.60;;;30.40;89.50;;;;;;5010691;28;20034;-72
2021/08/14 11:21:15;;;;;;;6.20;3.67;;;30.60;89.40;;;;;;5013364;28;20133;-72
2021/08/14 11:23:57;;;;;;;5.47;3.72;;;30.80;89.90;;;;;;5014642;28;20049;-72
2021/08/14 11:26:34;;;;;;;4.35;3.05;;;30.90;89.60;;;;;;5014225;28;20049;-72
2021/08/14 11:29:03;;;;;;;7.93;3.60;;;30.60;88.60;;;;;;5014276;28;20033;-72
2021/08/14 11:31:29;;;;;;;5.85;3.40;;;30.90;85.90;;;;;;5015639;28;20088;-72
2021/08/14 11:34:12;;;;;;;6.90;3.38;;;30.90;84.60;;;;;;5015418;28;20038;-72
2021/08/14 11:36:40;;;;;;;8.63;3.85;;;30.90;85.80;;;;;;5014566;28;20116;-72
2021/08/14 11:39:06;;;;;;;6.10;4.00;;;30.90;85.60;;;;;;5014178;28;20030;-72
2021/08/14 11:41:32;;;;;;;5.53;3.22;;;31.10;83.20;;;;;;5014047;28;20034;-72
2021/08/14 11:44:04;;;;;;;5.07;3.33;;;31.00;81.50;;;;;;5014965;28;20564;-72
2021/08/14 11:46:31;;;;;;;5.30;2.90;;;30.80;81.90;;;;;;5013398;28;20040;-72
2021/08/14 11:49:02;;;;;;;4.97;3.25;;;31.00;80.70;;;;;;5015143;28;20034;-72
2021/08/14 11:51:29;;;;;;;6.32;3.65;;;31.20;80.80;;;;;;5013702;28;20111;-72
2021/08/14 11:54:10;;;;;;;10.32;3.58;;;31.20;81.20;;;;;;5015451;28;20049;-72
2021/08/14 11:56:38;;;;;;;7.47;3.97;;;30.90;81.10;;;;;;5014965;28;20030;-72
2021/08/14 11:59:05;;;;;;;6.95;3.45;;;31.00;82.50;;;;;;5014717;28;20625;-72
2021/08/14 12:01:31;;;;;;;7.72;3.75;;;30.80;84.00;;;;;;5013412;28;20038;-72
2021/08/14 12:04:00;;;;;;;6.75;3.47;;;31.10;85.70;;;;;;5013822;28;20030;-72
2021/08/14 12:06:33;;;;;;;5.05;3.22;;;31.20;83.90;;;;;;5013699;28;20049;-72
2021/08/14 12:09:03;;;;;;;5.20;3.45;;;31.30;83.00;;;;;;5015095;28;20032;-72
2021/08/14 12:11:30;;;;;;;6.90;3.80;;;31.70;83.40;;;;;;5013735;28;20108;-73
2021/08/14 12:14:18;;;;;;;9.20;4.18;;;31.50;83.90;;;;;;5013945;28;20041;-72
2021/08/14 12:16:47;;;;;;;6.05;3.50;;;31.80;82.60;;;;;;4997828;28;20045;-72
2021/08/14 12:19:19;;;;;;;6.88;3.72;;;31.40;81.10;;;;;;5013322;28;20042;-72
2021/08/14 12:21:47;;;;;;;5.30;3.72;;;31.90;81.80;;;;;;5014866;28;20111;-72
2021/08/14 12:24:14;;;;;;;5.80;3.45;;;32.30;81.50;;;;;;5014548;28;20044;-73
2021/08/14 12:26:40;;;;;;;8.07;3.60;;;32.10;80.10;;;;;;5014771;28;20470;-72
2021/08/14 12:29:12;;;;;;;7.78;3.80;;;31.90;81.00;;;;;;5029930;28;20026;-72
2021/08/14 12:31:53;;;;;;;5.78;3.40;;;32.10;80.80;;;;;;5028933;28;20038;-72
2021/08/14 12:34:30;;;;;;;5.20;3.70;;;32.60;81.10;;;;;;5032528;28;20034;-72
2021/08/14 12:37:06;;;;;;;5.55;3.80;;;33.00;81.70;;;;;;5034164;28;20489;-72